Time;durP1;ratioP1;P1;durP2;ratioP2;P2;SDS_P1;SDS_P2;PMS_P1;PMS_P2;Temp;Humidity;BMP_temperature;BMP_pressure;BME280_temperature;BME280_humidity;BME280_pressure;Samples;Min_cycle;Max_cycle;Signal;HPM_P1;HPM_P2
2023/08/09 00:02:00;;;;;;;10.35;1.98;;;;;;;10.60;100.00;100251.59;4980950;28;20789;-83
2023/08/09 00:04:33;;;;;;;9.10;1.70;;;;;;;10.53;100.00;100251.94;4992378;28;20434;-84
2023/08/09 00:07:01;;;;;;;8.10;1.70;;;;;;;10.54;100.00;100250.06;4988638;28;20424;-83
2023/08/09 00:09:30;;;;;;;8.43;1.52;;;;;;;10.54;100.00;100256.31;4992738;28;20418;-82
2023/08/09 00:12:05;;;;;;;4.20;1.40;;;;;;;10.46;100.00;100243.34;4989491;28;20430;-81
2023/08/09 00:14:33;;;;;;;10.05;1.50;;;;;;;10.50;100.00;100244.38;4993278;28;20903;-83
2023/08/09 00:17:01;;;;;;;7.63;1.30;;;;;;;10.48;100.00;100245.75;4988481;28;21477;-83
2023/08/09 00:19:34;;;;;;;8.50;1.40;;;;;;;10.50;100.00;100257.19;4981156;28;20983;-84
2023/08/09 00:22:08;;;;;;;6.32;1.40;;;;;;;10.52;100.00;100257.69;4987213;28;20438;-83
2023/08/09 00:24:36;;;;;;;8.00;1.47;;;;;;;10.49;100.00;100258.28;4991238;28;20429;-82
2023/08/09 00:27:11;;;;;;;7.32;1.48;;;;;;;10.54;100.00;100255.50;4987918;28;20451;-81
2023/08/09 00:29:44;;;;;;;5.45;1.27;;;;;;;10.53;100.00;100260.13;4986014;28;20426;-83
2023/08/09 00:32:12;;;;;;;7.10;1.80;;;;;;;10.40;100.00;100252.66;4983148;28;20443;-83
2023/08/09 00:34:45;;;;;;;5.50;1.30;;;;;;;10.35;100.00;100260.88;4992402;28;20783;-84
2023/08/09 00:37:14;;;;;;;7.38;1.40;;;;;;;10.34;100.00;100256.50;5008772;28;20445;-84
2023/08/09 00:39:42;;;;;;;7.10;1.50;;;;;;;10.30;100.00;100245.41;5017956;28;21254;-84
2023/08/09 00:42:12;;;;;;;7.35;1.60;;;;;;;10.33;100.00;100252.97;5020512;28;20438;-82
2023/08/09 00:44:40;;;;;;;6.63;1.20;;;;;;;10.19;100.00;100249.31;5014359;28;20783;-83
2023/08/09 00:47:14;;;;;;;10.18;1.63;;;;;;;10.18;100.00;100256.66;5003577;28;20458;-82
2023/08/09 00:49:42;;;;;;;7.40;1.30;;;;;;;10.19;100.00;100266.44;5016793;28;20779;-83
2023/08/09 00:52:20;;;;;;;3.53;1.20;;;;;;;10.22;100.00;100267.78;4991995;28;20422;-81
2023/08/09 00:54:53;;;;;;;5.32;1.42;;;;;;;10.19;100.00;100261.00;5016270;28;20919;-84
2023/08/09 00:57:28;;;;;;;6.72;1.30;;;;;;;10.09;100.00;100258.38;4986497;28;20430;-83
2023/08/09 01:00:04;;;;;;;9.02;1.40;;;;;;;10.10;100.00;100270.88;4988183;28;20437;-82
2023/08/09 01:02:33;;;;;;;5.45;1.40;;;;;;;10.03;100.00;100271.22;4993422;28;20441;-84
2023/08/09 01:05:06;;;;;;;6.50;1.40;;;;;;;10.08;100.00;100264.09;4986943;28;20431;-82
2023/08/09 01:07:50;;;;;;;7.85;1.55;;;;;;;10.06;100.00;100269.03;4986698;28;20886;-83
2023/08/09 01:10:29;;;;;;;7.63;1.60;;;;;;;10.00;100.00;100271.78;5004292;28;20796;-82
2023/08/09 01:13:03;;;;;;;5.55;1.50;;;;;;;9.99;100.00;100272.88;4986739;28;20782;-81
2023/08/09 01:15:33;;;;;;;8.77;1.60;;;;;;;10.14;100.00;100269.22;4982483;28;20439;-84
2023/08/09 01:18:04;;;;;;;5.85;1.30;;;;;;;10.17;100.00;100271.34;5017225;28;20430;-82
2023/08/09 01:20:33;;;;;;;6.65;1.60;;;;;;;10.09;100.00;100258.38;5017341;28;20441;-84
2023/08/09 01:23:04;;;;;;;5.28;1.52;;;;;;;10.19;100.00;100268.34;5018130;28;20785;-84
2023/08/09 01:25:39;;;;;;;5.47;1.38;;;;;;;10.11;100.00;100263.53;4997467;28;20411;-82
2023/08/09 01:28:15;;;;;;;6.25;1.38;;;;;;;10.14;100.00;100268.41;4976241;28;20432;-82
2023/08/09 01:30:48;;;;;;;7.50;1.27;;;;;;;10.23;100.00;100279.47;4983979;28;20894;-82
2023/08/09 01:33:22;;;;;;;5.25;1.50;;;;;;;10.17;100.00;100276.78;5010221;28;20439;-82
2023/08/09 01:36:00;;;;;;;7.10;1.50;;;;;;;10.21;100.00;100271.59;4987296;28;20517;-83
2023/08/09 01:38:34;;;;;;;7.97;1.40;;;;;;;10.25;100.00;100271.81;4989369;28;20439;-83
2023/08/09 01:41:09;;;;;;;5.53;1.65;;;;;;;10.28;100.00;100276.69;4983513;28;21030;-83
2023/08/09 01:43:44;;;;;;;4.65;1.40;;;;;;;10.38;100.00;100279.34;4992100;28;20426;-82
2023/08/09 01:46:19;;;;;;;6.90;1.58;;;;;;;10.17;100.00;100276.00;4997827;28;20430;-82
2023/08/09 01:48:47;;;;;;;9.88;1.60;;;;;;;10.13;100.00;100274.94;4987254;28;20423;-82
2023/08/09 01:51:16;;;;;;;6.80;1.70;;;;;;;10.10;100.00;100280.97;4988482;28;20426;-82
2023/08/09 01:53:49;;;;;;;7.80;1.70;;;;;;;10.20;100.00;100275.41;4990503;28;20494;-81
2023/08/09 01:56:19;;;;;;;9.52;1.90;;;;;;;10.10;100.00;100280.97;4993946;28;20426;-81
2023/08/09 01:58:52;;;;;;;6.05;1.50;;;;;;;10.06;100.00;100280.72;4979689;28;20459;-84
2023/08/09 02:01:25;;;;;;;6.30;1.45;;;;;;;10.09;100.00;100276.59;4988996;28;20430;-82
2023/08/09 02:03:54;;;;;;;4.53;1.30;;;;;;;9.96;100.00;100276.19;4983953;28;20949;-89
2023/08/09 02:06:27;;;;;;;7.80;1.50;;;;;;;9.88;100.00;100272.16;4992480;28;20442;-84
2023/08/09 02:09:00;;;;;;;5.63;1.60;;;;;;;9.88;100.00;100274.88;4990365;28;20779;-83
2023/08/09 02:11:30;;;;;;;7.60;1.55;;;;;;;9.96;100.00;100286.25;4989400;28;20420;-82
2023/08/09 02:13:58;;;;;;;8.05;1.40;;;;;;;9.82;100.00;100284.19;4982483;28;20431;-82
2023/08/09 02:16:31;;;;;;;6.30;1.58;;;;;;;9.79;100.00;100290.19;4987008;28;20445;-83
2023/08/09 02:19:00;;;;;;;5.15;1.30;;;;;;;9.73;100.00;100285.06;4987041;28;20423;-84
2023/08/09 02:21:28;;;;;;;6.35;1.77;;;;;;;9.72;100.00;100286.16;5014814;28;20431;-82
2023/08/09 02:24:01;;;;;;;7.05;1.30;;;;;;;9.68;100.00;100288.63;4990130;28;21021;-82
2023/08/09 02:26:31;;;;;;;8.57;1.60;;;;;;;9.65;100.00;100284.59;4984549;28;20879;-83
2023/08/09 02:28:59;;;;;;;6.57;1.40;;;;;;;9.66;100.00;100280.75;4988681;28;20484;-82
2023/08/09 02:31:32;;;;;;;5.53;1.40;;;;;;;9.73;100.00;100285.88;4992077;28;20426;-83
2023/08/09 02:34:05;;;;;;;6.88;1.55;;;;;;;9.67;100.00;100289.75;4988703;28;20441;-80
2023/08/09 02:36:38;;;;;;;5.93;1.40;;;;;;;9.67;100.00;100279.66;4983072;28;20777;-83
2023/08/09 02:39:12;;;;;;;8.27;1.60;;;;;;;9.65;100.00;100283.75;4990712;28;20414;-82
2023/08/09 02:41:46;;;;;;;4.23;1.50;;;;;;;9.65;100.00;100281.03;4977965;28;20854;-82
2023/08/09 02:44:19;;;;;;;8.32;1.45;;;;;;;9.64;100.00;100290.28;5018968;28;20422;-83
2023/08/09 02:46:48;;;;;;;4.20;1.47;;;;;;;9.67;100.00;100287.03;4981435;28;20515;-82
2023/08/09 02:49:21;;;;;;;8.07;1.60;;;;;;;9.69;100.00;100284.81;4991598;28;20795;-80
2023/08/09 02:51:49;;;;;;;7.32;1.70;;;;;;;9.70;100.00;100291.88;4990235;28;20914;-81
2023/08/09 02:54:22;;;;;;;5.82;1.40;;;;;;;9.72;100.00;100286.97;4986102;28;20803;-82
2023/08/09 02:56:57;;;;;;;7.43;1.50;;;;;;;9.72;100.00;100288.88;4983386;28;20435;-81
2023/08/09 02:59:25;;;;;;;5.60;1.48;;;;;;;9.79;100.00;100290.19;5013098;28;20438;-82
2023/08/09 03:01:54;;;;;;;6.30;1.83;;;;;;;9.68;100.00;100285.91;4987927;28;20418;-81
2023/08/09 03:04:27;;;;;;;7.57;1.58;;;;;;;9.61;100.00;100291.69;4989457;28;20418;-84
2023/08/09 03:07:00;;;;;;;6.32;1.60;;;;;;;9.59;100.00;100293.84;4993484;28;20907;-81
2023/08/09 03:09:34;;;;;;;7.13;1.50;;;;;;;9.60;100.00;100289.22;4987508;28;20418;-82
2023/08/09 03:12:05;;;;;;;7.55;1.63;;;;;;;9.54;100.00;100288.44;5013423;28;20903;-81
2023/08/09 03:14:33;;;;;;;5.68;1.40;;;;;;;9.58;100.00;100297.66;4990147;28;20437;-84
2023/08/09 03:17:07;;;;;;;6.53;1.77;;;;;;;9.66;100.00;100296.25;4981786;28;20431;-81
2023/08/09 03:19:35;;;;;;;8.25;1.70;;;;;;;9.60;100.00;100294.66;4983123;28;20437;-80
2023/08/09 03:22:08;;;;;;;11.25;1.90;;;;;;;9.55;100.00;100298.22;5014149;28;20897;-87
2023/08/09 03:24:42;;;;;;;8.77;1.60;;;;;;;9.58;100.00;100307.72;5014607;28;20443;-84
2023/08/09 03:27:16;;;;;;;5.53;1.90;;;;;;;9.63;100.00;100304.97;4995758;28;20787;-82
2023/08/09 03:29:50;;;;;;;7.30;1.70;;;;;;;9.59;100.00;100302.00;5004323;28;20426;-83
2023/08/09 03:32:24;;;;;;;5.97;1.70;;;;;;;9.65;100.00;100305.50;4982752;28;20441;-81
2023/08/09 03:34:57;;;;;;;8.77;1.65;;;;;;;9.60;100.00;100309.06;4981638;28;20432;-81
2023/08/09 03:37:26;;;;;;;9.27;1.60;;;;;;;9.63;100.00;100318.56;5022473;28;20436;-81
2023/08/09 03:39:54;;;;;;;8.20;2.00;;;;;;;9.67;100.00;100314.19;4990864;28;20426;-82
2023/08/09 03:42:28;;;;;;;6.70;1.75;;;;;;;9.74;100.00;100313.88;4989535;28;20436;-81
2023/08/09 03:45:02;;;;;;;9.73;2.00;;;;;;;9.63;100.00;100313.13;4991804;28;20406;-83
2023/08/09 03:47:30;;;;;;;7.75;2.05;;;;;;;9.67;100.00;100320.44;5019405;28;20423;-84
2023/08/09 03:50:05;;;;;;;7.50;2.00;;;;;;;9.77;100.00;100321.44;5002516;28;20423;-82
2023/08/09 03:52:34;;;;;;;8.85;1.70;;;;;;;9.76;100.00;100319.81;5023195;28;20435;-81
2023/08/09 03:55:09;;;;;;;5.50;1.70;;;;;;;9.76;100.00;100325.25;4996085;28;20436;-83
2023/08/09 03:57:39;;;;;;;10.57;2.00;;;;;;;9.77;100.00;100324.97;4979152;28;20426;-82
2023/08/09 04:00:09;;;;;;;7.27;2.10;;;;;;;9.80;100.00;100320.88;4983487;28;20429;-84
2023/08/09 04:02:40;;;;;;;5.10;1.95;;;;;;;9.78;100.00;100323.09;4992268;28;20502;-82
2023/08/09 04:05:14;;;;;;;9.05;2.05;;;;;;;9.82;100.00;100327.66;4988735;28;20436;-83
2023/08/09 04:07:44;;;;;;;6.97;1.80;;;;;;;9.87;100.00;100343.09;4993375;28;20424;-83
2023/08/09 04:10:12;;;;;;;8.30;1.95;;;;;;;9.89;100.00;100340.94;4986543;28;20831;-82
2023/08/09 04:12:47;;;;;;;10.27;2.20;;;;;;;9.97;100.00;100340.31;4985034;28;20439;-84
2023/08/09 04:15:21;;;;;;;6.40;1.70;;;;;;;10.00;100.00;100341.66;4983685;28;20820;-82
2023/08/09 04:17:54;;;;;;;7.90;2.03;;;;;;;9.99;100.00;100343.56;4992870;28;20439;-84
2023/08/09 04:20:23;;;;;;;6.50;2.00;;;;;;;9.91;100.00;100343.38;4990241;28;20445;-81
2023/08/09 04:22:51;;;;;;;8.20;2.15;;;;;;;9.88;100.00;100345.53;5013146;28;20791;-81
2023/08/09 04:25:24;;;;;;;7.97;1.98;;;;;;;9.87;100.00;100343.09;4989107;28;21208;-85
2023/08/09 04:28:00;;;;;;;8.68;2.13;;;;;;;9.94;100.00;100340.06;4989238;28;20433;-84
2023/08/09 04:30:28;;;;;;;7.10;2.00;;;;;;;9.89;100.00;100340.94;5014371;28;20416;-83
2023/08/09 04:32:57;;;;;;;4.93;1.98;;;;;;;9.99;100.00;100343.56;4994074;28;20963;-81
2023/08/09 04:35:25;;;;;;;8.65;2.05;;;;;;;9.93;100.00;100346.59;4993875;28;20435;-82
2023/08/09 04:37:58;;;;;;;7.43;1.90;;;;;;;9.90;100.00;100352.59;4983387;28;20419;-82
2023/08/09 04:40:27;;;;;;;7.57;2.10;;;;;;;9.96;100.00;100357.72;4989951;28;20443;-81
2023/08/09 04:42:55;;;;;;;7.40;1.85;;;;;;;9.94;100.00;100359.09;4984539;28;20423;-85
2023/08/09 04:45:25;;;;;;;6.68;2.10;;;;;;;9.98;100.00;100358.25;5007743;28;20429;-83
2023/08/09 04:47:54;;;;;;;8.30;1.93;;;;;;;9.91;100.00;100365.09;4991658;28;20439;-83
2023/08/09 04:50:22;;;;;;;6.97;1.97;;;;;;;9.94;100.00;100370.78;4987119;28;20440;-82
2023/08/09 04:52:55;;;;;;;8.00;2.00;;;;;;;9.97;100.00;100374.84;4991680;28;20791;-82
2023/08/09 04:55:23;;;;;;;7.53;2.07;;;;;;;9.91;100.00;100359.69;4981355;28;20983;-84
2023/08/09 04:57:52;;;;;;;6.50;2.08;;;;;;;9.97;100.00;100358.53;4982112;28;20429;-81
2023/08/09 05:00:20;;;;;;;8.27;1.90;;;;;;;9.92;100.00;100372.19;4978612;28;20449;-84
2023/08/09 05:02:55;;;;;;;9.43;2.10;;;;;;;9.97;100.00;100364.78;4980392;28;20434;-81
2023/08/09 05:05:23;;;;;;;8.38;2.10;;;;;;;10.03;100.00;100371.00;5001473;28;20924;-82
2023/08/09 05:07:51;;;;;;;8.35;2.20;;;;;;;10.18;100.00;100370.88;5009029;28;20510;-83
2023/08/09 05:10:19;;;;;;;7.32;2.00;;;;;;;10.92;100.00;100385.44;5011942;28;20428;-84
2023/08/09 05:12:53;;;;;;;6.43;1.83;;;;;;;11.68;100.00;100375.50;4998545;28;20448;-81
2023/08/09 05:15:21;;;;;;;6.47;1.67;;;;;;;11.86;100.00;100386.66;4980742;28;20454;-82
2023/08/09 05:17:55;;;;;;;7.22;1.88;;;;;;;12.07;100.00;100392.69;5015623;28;20430;-83
2023/08/09 05:20:24;;;;;;;9.48;2.00;;;;;;;12.00;100.00;100394.94;4981653;28;20435;-81
2023/08/09 05:22:57;;;;;;;5.73;1.60;;;;;;;11.49;100.00;100397.28;4978667;28;20418;-83
2023/08/09 05:25:31;;;;;;;9.70;2.03;;;;;;;11.54;100.00;100396.41;4987601;28;20413;-82
2023/08/09 05:28:04;;;;;;;4.27;1.50;;;;;;;11.50;100.00;100387.19;4930141;28;1751626;-83
2023/08/09 05:30:33;;;;;;;6.37;2.10;;;;;;;11.03;100.00;100387.78;5022745;28;20432;-85
2023/08/09 05:33:10;;;;;;;7.22;1.77;;;;;;;10.95;100.00;100396.56;4985360;28;20415;-83
2023/08/09 05:35:38;;;;;;;7.45;1.92;;;;;;;10.92;100.00;100405.31;4991718;28;20578;-83
2023/08/09 05:38:11;;;;;;;10.32;1.80;;;;;;;11.17;100.00;100406.94;4993014;28;20434;-82
2023/08/09 05:40:45;;;;;;;7.97;1.88;;;;;;;11.10;100.00;100408.38;4989031;28;20917;-85
2023/08/09 05:43:18;;;;;;;6.25;1.60;;;;;;;11.31;100.00;100415.22;4997122;28;20440;-81
2023/08/09 05:45:47;;;;;;;6.88;1.67;;;;;;;11.49;100.00;100401.91;5017985;28;20453;-82
2023/08/09 05:48:16;;;;;;;7.30;1.60;;;;;;;11.62;100.00;100405.84;4980571;28;20451;-83
2023/08/09 05:50:49;;;;;;;4.78;1.60;;;;;;;11.42;100.00;100402.28;5011111;28;20451;-84
2023/08/09 05:53:23;;;;;;;7.53;1.73;;;;;;;11.56;100.00;100407.81;4988648;28;20435;-83
2023/08/09 05:55:51;;;;;;;7.93;1.90;;;;;;;11.57;100.00;100410.25;4985168;28;20426;-83
2023/08/09 05:58:25;;;;;;;5.55;1.67;;;;;;;11.67;100.00;100405.75;4983420;28;20486;-83
2023/08/09 06:00:59;;;;;;;7.13;1.70;;;;;;;11.66;100.00;100409.59;4984063;28;20790;-82
2023/08/09 06:03:28;;;;;;;5.05;1.50;;;;;;;11.78;100.00;100412.69;4982121;28;20432;-82
2023/08/09 06:05:57;;;;;;;4.55;1.58;;;;;;;11.77;100.00;100416.53;4981378;28;20422;-85
2023/08/09 06:08:31;;;;;;;5.55;1.70;;;;;;;11.89;100.00;100419.63;4980915;28;20430;-84
2023/08/09 06:10:59;;;;;;;6.40;1.60;;;;;;;11.87;100.00;100421.03;4979573;28;20902;-84
2023/08/09 06:13:28;;;;;;;4.07;1.40;;;;;;;11.91;100.00;100422.06;4983274;28;20438;-83
2023/08/09 06:15:57;;;;;;;6.15;1.52;;;;;;;12.03;100.00;100419.72;5011378;28;20442;-83
2023/08/09 06:18:31;;;;;;;6.80;1.70;;;;;;;12.23;100.00;100431.41;4979851;28;20428;-87
2023/08/09 06:21:05;;;;;;;5.70;1.55;;;;;;;12.35;100.00;100442.69;4980559;28;20434;-85
2023/08/09 06:23:33;;;;;;;6.40;1.73;;;;;;;12.64;100.00;100436.22;4978303;28;20789;-84
2023/08/09 06:26:06;;;;;;;6.20;1.60;;;;;;;12.82;100.00;100434.53;4976063;28;20443;-85
2023/08/09 06:28:35;;;;;;;8.13;1.50;;;;;;;12.91;100.00;100437.34;4981326;28;21280;-82
2023/08/09 06:31:03;;;;;;;6.45;1.55;;;;;;;13.19;100.00;100448.34;4984443;28;21449;-83
2023/08/09 06:33:37;;;;;;;8.13;1.90;;;;;;;13.02;100.00;100441.53;4991092;28;20479;-85
2023/08/09 06:36:11;;;;;;;6.25;1.60;;;;;;;13.30;100.00;100440.72;4981700;28;20428;-81
2023/08/09 06:38:39;;;;;;;5.57;1.65;;;;;;;13.30;100.00;100438.81;4982302;28;20918;-85
2023/08/09 06:41:09;;;;;;;9.18;1.77;;;;;;;13.36;100.00;100448.56;4978234;28;20437;-86
2023/08/09 06:43:42;;;;;;;6.40;1.33;;;;;;;13.32;100.00;100458.44;4976618;28;20420;-85
2023/08/09 06:46:11;;;;;;;5.93;1.35;;;;;;;13.31;100.00;100465.00;5010493;28;20439;-85
2023/08/09 06:48:40;;;;;;;10.02;1.58;;;;;;;13.60;100.00;100461.19;4983110;28;20793;-88
2023/08/09 06:51:15;;;;;;;10.35;2.80;;;;;;;13.83;100.00;100455.78;4978951;28;20431;-88
2023/08/09 06:53:48;;;;;;;6.90;1.65;;;;;;;13.84;100.00;100468.38;4981926;28;20435;-87
2023/08/09 06:56:16;;;;;;;6.90;1.60;;;;;;;14.10;100.00;100463.13;4980954;28;20447;-84
2023/08/09 06:58:49;;;;;;;6.43;1.60;;;;;;;14.20;100.00;100471.09;4991424;28;20438;-84
2023/08/09 07:01:23;;;;;;;7.30;1.40;;;;;;;14.21;100.00;100480.94;4980852;28;20793;-86
2023/08/09 07:03:53;;;;;;;7.78;1.45;;;;;;;14.40;100.00;100482.66;5000856;28;21173;-87
2023/08/09 07:06:21;;;;;;;9.57;1.70;;;;;;;14.48;100.00;100483.88;4982310;28;20430;-84
2023/08/09 07:08:53;;;;;;;8.85;1.50;;;;;;;14.38;100.00;100480.25;4983117;28;20438;-92
2023/08/09 07:11:21;;;;;;;5.03;1.30;;;;;;;14.48;100.00;100486.59;4978071;28;20774;-83
2023/08/09 07:13:54;;;;;;;7.27;1.60;;;;;;;14.22;100.00;100490.72;4981338;28;20778;-85
2023/08/09 07:16:23;;;;;;;7.55;1.80;;;;;;;14.12;100.00;100496.47;4995170;28;20463;-82
2023/08/09 07:18:57;;;;;;;8.63;1.60;;;;;;;14.17;100.00;100493.59;4983963;28;20441;-83
2023/08/09 07:21:27;;;;;;;8.23;1.50;;;;;;;14.18;100.00;100497.94;4987459;28;20970;-84
2023/08/09 07:23:55;;;;;;;8.77;2.00;;;;;;;14.28;100.00;100505.13;4982591;28;20439;-81
2023/08/09 07:26:29;;;;;;;10.13;2.15;;;;;;;14.29;100.00;100506.75;4974246;28;20458;-82
2023/08/09 07:29:03;;;;;;;8.68;1.70;;;;;;;14.28;100.00;100507.88;4975230;28;20442;-84
2023/08/09 07:31:31;;;;;;;6.07;1.40;;;;;;;14.62;100.00;100514.72;4967475;28;20426;-86
2023/08/09 07:34:06;;;;;;;8.03;1.63;;;;;;;14.39;100.00;100522.94;4972962;28;20846;-82
2023/08/09 07:36:34;;;;;;;8.32;1.85;;;;;;;14.15;100.00;100517.72;4967835;28;20894;-85
2023/08/09 07:39:03;;;;;;;11.10;3.53;;;;;;;14.31;100.00;100522.84;4966221;28;20464;-85
2023/08/09 07:41:36;;;;;;;5.60;1.45;;;;;;;14.33;100.00;100534.31;4965096;28;20672;-86
2023/08/09 07:44:09;;;;;;;9.20;1.55;;;;;;;14.25;100.00;100533.09;4975932;28;20454;-83
2023/08/09 07:46:42;;;;;;;8.57;1.60;;;;;;;14.26;100.00;100535.53;4967043;28;20484;-84
2023/08/09 07:49:12;;;;;;;10.20;1.58;;;;;;;14.43;100.00;100545.84;4968961;28;20482;-82
2023/08/09 07:51:45;;;;;;;9.18;1.58;;;;;;;14.39;100.00;100542.09;4963519;28;20434;-87
2023/08/09 07:54:18;;;;;;;6.85;1.52;;;;;;;14.21;100.00;100543.03;4968498;28;20427;-84
2023/08/09 07:56:52;;;;;;;6.95;1.40;;;;;;;14.28;100.00;100554.41;4965079;28;21496;-84
2023/08/09 07:59:25;;;;;;;9.60;1.65;;;;;;;14.31;100.00;100556.53;4986643;28;20425;-86
2023/08/09 08:01:53;;;;;;;9.13;1.70;;;;;;;14.55;100.00;100553.50;4980955;28;21352;-85
2023/08/09 08:04:23;;;;;;;7.03;1.40;;;;;;;14.55;100.00;100561.72;4988313;28;20435;-82
2023/08/09 08:06:51;;;;;;;8.32;1.65;;;;;;;14.59;100.00;100570.94;4994701;28;21774;-82
2023/08/09 08:09:24;;;;;;;8.77;1.75;;;;;;;14.96;100.00;100554.47;4987780;28;22133;-85
2023/08/09 08:11:53;;;;;;;7.55;1.60;;;;;;;14.87;100.00;100557.16;4986589;28;20436;-86
2023/08/09 08:14:22;;;;;;;8.33;1.60;;;;;;;14.72;100.00;100565.75;4988846;28;20437;-85
2023/08/09 08:16:50;;;;;;;9.50;1.40;;;;;;;14.69;100.00;100572.66;4988184;28;20425;-83
2023/08/09 08:19:25;;;;;;;11.95;1.77;;;;;;;15.05;100.00;100576.44;4992885;28;20444;-82
2023/08/09 08:21:53;;;;;;;8.55;1.63;;;;;;;15.05;100.00;100557.28;4990378;28;21853;-84
2023/08/09 08:24:27;;;;;;;7.00;1.70;;;;;;;15.20;100.00;100564.28;4989769;28;20421;-85
2023/08/09 08:26:55;;;;;;;9.43;1.83;;;;;;;15.20;100.00;100567.84;4995716;28;21240;-82
2023/08/09 08:29:29;;;;;;;6.45;1.85;;;;;;;15.11;100.00;100565.03;4995199;28;20480;-85
2023/08/09 08:32:02;;;;;;;6.03;1.52;;;;;;;15.22;100.00;100567.50;4986578;28;21211;-86
2023/08/09 08:34:37;;;;;;;8.82;1.73;;;;;;;15.16;100.00;100582.50;4986814;28;20440;-86
2023/08/09 08:37:06;;;;;;;8.23;1.42;;;;;;;15.01;100.00;100583.69;4987942;28;20436;-83
2023/08/09 08:39:43;;;;;;;7.30;1.58;;;;;;;14.96;100.00;100576.41;4985139;28;20433;-84
2023/08/09 08:42:18;;;;;;;6.13;1.40;;;;;;;14.91;100.00;100579.25;4988836;28;20440;-84
2023/08/09 08:44:51;;;;;;;10.25;2.17;;;;;;;15.39;100.00;100575.84;4991037;28;20428;-87
2023/08/09 08:47:19;;;;;;;9.60;1.87;;;;;;;15.40;100.00;100587.63;4990964;28;20440;-83
2023/08/09 08:49:58;;;;;;;8.73;1.98;;;;;;;15.16;100.00;100591.50;4989745;28;20433;-83
2023/08/09 08:52:34;;;;;;;9.38;1.75;;;;;;;15.29;100.00;100598.06;4988138;28;20433;-88
2023/08/09 08:55:09;;;;;;;10.73;1.92;;;;;;;15.22;100.00;100590.28;5019955;28;20432;-86
2023/08/09 08:57:45;;;;;;;7.63;2.10;;;;;;;15.22;100.00;100593.00;5009145;28;20443;-84
2023/08/09 09:00:20;;;;;;;7.63;1.75;;;;;;;15.30;100.00;100596.91;4993860;28;20439;-83
2023/08/09 09:02:49;;;;;;;8.63;1.83;;;;;;;15.48;100.00;100593.16;4989970;28;20434;-86
2023/08/09 09:05:24;;;;;;;7.77;2.00;;;;;;;15.69;100.00;100595.34;4992024;28;20425;-87
2023/08/09 09:07:57;;;;;;;8.38;1.80;;;;;;;15.85;100.00;100592.19;4986333;28;20444;-87
2023/08/09 09:10:26;;;;;;;6.95;1.60;;;;;;;15.94;100.00;100602.09;5005389;28;20440;-82
2023/08/09 09:12:55;;;;;;;9.25;1.83;;;;;;;15.97;100.00;100608.88;4989276;28;20417;-81
2023/08/09 09:15:24;;;;;;;9.80;1.70;;;;;;;15.89;100.00;100601.41;4994286;28;20440;-83
2023/08/09 09:17:52;;;;;;;8.18;1.63;;;;;;;15.71;100.00;100619.72;4989650;28;20459;-85
2023/08/09 09:20:29;;;;;;;8.53;1.80;;;;;;;15.71;100.00;100609.53;4989306;28;20448;-85
2023/08/09 09:22:57;;;;;;;11.50;2.00;;;;;;;15.89;100.00;100613.19;4992431;28;22240;-83
2023/08/09 09:26:03;;;;;;;9.97;1.60;;;;;;;16.23;100.00;100611.69;4991564;28;20585;-83
2023/08/09 09:28:38;;;;;;;8.55;1.67;;;;;;;16.28;100.00;100610.72;4984098;28;20428;-84
2023/08/09 09:31:07;;;;;;;9.48;1.80;;;;;;;15.92;100.00;100617.25;4996757;28;21236;-82
2023/08/09 09:33:36;;;;;;;6.38;1.67;;;;;;;15.70;100.00;100612.59;5020075;28;20436;-84
2023/08/09 09:36:12;;;;;;;7.25;1.42;;;;;;;15.38;100.00;100620.81;4989222;28;21203;-84
2023/08/09 09:38:41;;;;;;;7.75;1.70;;;;;;;15.35;100.00;100624.22;4986837;28;20440;-81
2023/08/09 09:41:09;;;;;;;6.00;1.52;;;;;;;14.97;100.00;100638.31;4988245;28;20436;-88
2023/08/09 09:43:46;;;;;;;7.22;1.50;;;;;;;14.95;100.00;100632.31;5024162;28;20443;-83
2023/08/09 09:46:19;;;;;;;9.88;2.17;;;;;;;15.01;100.00;100630.25;4994938;28;21102;-83
2023/08/09 09:48:49;;;;;;;9.73;1.77;;;;;;;15.27;100.00;100625.78;4988902;28;20494;-86
2023/08/09 09:51:24;;;;;;;8.88;1.80;;;;;;;15.80;100.00;100626.09;4990754;28;20547;-82
2023/08/09 09:53:57;;;;;;;6.87;1.80;;;;;;;16.09;100.00;100622.00;4994344;28;20623;-85
2023/08/09 09:56:31;;;;;;;5.82;1.52;;;;;;;16.18;100.00;100622.00;4986216;28;21748;-85
2023/08/09 09:58:59;;;;;;;8.05;1.55;;;;;;;16.11;100.00;100628.75;4991300;28;20433;-82
2023/08/09 10:01:28;;;;;;;5.82;1.30;;;;;;;15.92;100.00;100629.06;4988730;28;22180;-85
2023/08/09 10:04:06;;;;;;;10.88;2.13;;;;;;;15.72;100.00;100641.34;4992669;28;20432;-83
2023/08/09 10:06:42;;;;;;;8.32;1.80;;;;;;;15.66;100.00;100637.13;4988993;28;20452;-83
2023/08/09 10:09:13;;;;;;;10.82;1.90;;;;;;;16.28;100.00;100644.50;4995802;28;20539;-82
2023/08/09 10:11:42;;;;;;;8.63;1.95;;;;;;;16.02;100.00;100636.19;4993513;28;20429;-84
2023/08/09 10:14:12;;;;;;;7.70;1.55;;;;;;;15.98;100.00;100633.25;4994637;28;20423;-85
2023/08/09 10:16:42;;;;;;;7.18;1.80;;;;;;;16.32;100.00;100626.25;4986555;28;20435;-83
2023/08/09 10:19:19;;;;;;;7.03;1.75;;;;;;;16.62;100.00;100629.19;4989126;28;20436;-86
2023/08/09 10:21:54;;;;;;;10.57;1.90;;;;;;;17.09;100.00;100623.06;4993619;28;20433;-85
2023/08/09 10:24:30;;;;;;;5.88;1.67;;;;;;;17.05;100.00;100618.56;4989850;28;20451;-84
2023/08/09 10:27:02;;;;;;;7.35;1.40;;;;;;;16.90;100.00;100628.88;4989207;28;20425;-86
2023/08/09 10:29:36;;;;;;;6.93;1.70;;;;;;;16.71;100.00;100618.22;4993230;28;20908;-84
2023/08/09 10:32:09;;;;;;;5.40;1.50;;;;;;;16.24;100.00;100626.22;4958739;28;20497;-84
2023/08/09 10:34:42;;;;;;;6.78;1.55;;;;;;;16.75;100.00;100616.44;4998425;28;20432;-85
2023/08/09 10:37:22;;;;;;;9.57;1.88;;;;;;;16.89;100.00;100623.72;4979915;28;20444;-86
2023/08/09 10:40:15;;;;;;;9.17;1.70;;;;;;;16.50;100.00;100623.50;4988498;28;20436;-83
2023/08/09 10:42:51;;;;;;;9.33;1.70;;;;;;;16.75;100.00;100630.19;4982735;28;20441;-83
2023/08/09 10:45:19;;;;;;;6.97;1.40;;;;;;;16.82;100.00;100619.50;4990673;28;21219;-83
2023/08/09 10:47:50;;;;;;;5.47;1.40;;;;;;;17.07;100.00;100628.09;4989080;28;20817;-85
2023/08/09 10:50:18;;;;;;;7.43;1.55;;;;;;;17.30;100.00;100634.22;4995608;28;20432;-84
2023/08/09 10:52:53;;;;;;;7.72;1.60;;;;;;;17.02;100.00;100641.19;4990252;28;20455;-84
2023/08/09 10:55:28;;;;;;;5.22;1.40;;;;;;;17.31;100.00;100629.50;4989440;28;20433;-85
2023/08/09 10:57:59;;;;;;;9.30;1.60;;;;;;;17.41;100.00;100644.84;4981563;28;20412;-83
2023/08/09 11:00:41;;;;;;;7.45;1.80;;;;;;;17.09;100.00;100628.56;4990025;28;20443;-86
2023/08/09 11:03:11;;;;;;;7.45;2.00;;;;;;;17.42;100.00;100619.78;4985944;28;20432;-83
2023/08/09 11:05:39;;;;;;;7.20;1.25;;;;;;;17.62;100.00;100629.28;4987843;28;20432;-86
2023/08/09 11:08:19;;;;;;;3.92;1.20;;;;;;;17.59;100.00;100626.34;4984752;28;20447;-83
2023/08/09 11:10:52;;;;;;;6.22;1.40;;;;;;;17.63;100.00;100628.09;4993093;28;20425;-84
2023/08/09 11:13:20;;;;;;;7.55;1.50;;;;;;;17.55;100.00;100633.66;4989224;28;21014;-86
2023/08/09 11:15:51;;;;;;;7.20;1.45;;;;;;;17.56;100.00;100630.56;4984857;28;20443;-88
2023/08/09 11:18:24;;;;;;;4.53;1.20;;;;;;;17.80;100.00;100634.69;4985162;28;20443;-81
2023/08/09 11:20:57;;;;;;;5.10;1.25;;;;;;;17.85;100.00;100631.75;4987859;28;20428;-83
2023/08/09 11:23:27;;;;;;;7.03;1.33;;;;;;;17.75;100.00;100643.94;4990553;28;20435;-82
2023/08/09 11:26:01;;;;;;;5.53;1.40;;;;;;;17.70;100.00;100652.38;4989359;28;20424;-85
2023/08/09 11:28:35;;;;;;;6.03;1.10;;;;;;;17.36;100.00;100647.78;4990071;28;20434;-83
2023/08/09 11:31:08;;;;;;;5.88;1.20;;;;;;;16.93;100.00;100660.44;4963902;28;20449;-86
2023/08/09 11:33:36;;;;;;;5.32;1.17;;;;;;;17.30;100.00;100661.72;4983994;28;21801;-87
2023/08/09 11:36:05;;;;;;;6.77;1.43;;;;;;;17.90;100.00;100661.88;4984590;28;20806;-85
2023/08/09 11:38:36;;;;;;;8.05;2.67;;;;;;;17.71;100.00;100658.72;4991408;28;20432;-82
2023/08/09 11:41:04;;;;;;;5.28;1.40;;;;;;;17.95;100.00;100672.75;4988585;28;21818;-86